Terminal Aerodrome Forecast
Issued by NWS

Home | Current Version | Previous Version | Graphics & Text | Print | Product List | Glossary On
Versions: 1 2 3 4 5 6 7 8 9 10 11 12 13 14 15 16
000
FTUS43 KPAH 020500
TAFCGI
TAF
KCGI 020520Z 0206/0306 VRB03KT P6SM BKN100
     FM020800 00000KT 4SM BR SCT100
      TEMPO 0210/0212 2SM BR
     FM021400 04005KT P6SM FEW060=

USA.gov is the U.S. government's official web portal to all federal, state and local government web resources and services.